Tiempo atmosférico en la estación meteorológica de Mora, Toledo (717 m.)



Fecha
DESCASC
Temp. máxima en grados centígrados (hora)
DESCASC
Temp. mínima en grados centígrados (hora)
DESCASC
Temp. media en grados centígrados
DESCASC
Racha de viento máxima en m/sg (hora)
DESCASC
Velocidad máxima media en intervalos de 10 minutos(hora)
DESCASC
Precipitaciones diarias en mm
DESCASC
Precipitaciones de 00:00 a 06:00 en mm
DESCASC
Precipitaciones de 06:00 a 12:00 en mm
DESCASC
Precipitaciones de 12:00 a 18:00 en mm
DESCASC
Precipitaciones de 18:00 a 24:00 en mm
DESCASC
15-08-2019 35.8 (18:00) 19.9 (06:10) 27.8 6.94 (17:00) 3.89 (17:00) 0 0 0 0 0
14-08-2019 33.6 (17:20) 15.1 (00:00) 24.3 11.11 (13:30) 3.61 (14:20) 0 0 0 0 0
13-08-2019 30.1 (18:20) 14.4 (00:00) 22.3 7.5 (18:50) 3.61 (19:50) 0 0 0 0 0
12-08-2019 27.5 (17:00) 13.8 (00:00) 20.7 9.44 (16:10) 5 (11:40) 0 0 0 0 0
11-08-2019 30.2 (18:00) 18.6 (00:00) 24.4 11.39 (16:00) 6.39 (19:40) 0 0 0 0 0
10-08-2019 33.4 (18:10) 17.8 (00:00) 25.6 8.61 (16:50) 5 (16:10) 0 0 0 0 0
09-08-2019 32.3 (16:40) 20.9 (00:00) 26.6 11.67 (19:00) 6.94 (18:30) 0 0 0 0 0
08-08-2019 34.4 (18:30) 18.8 (00:00) 26.6 10.28 (16:30) 5.28 (19:30) 0 0 0 0 0
07-08-2019 29.7 (14:30) 22.5 (00:00) 26.1 10.56 (15:40) 6.11 (14:40) 0 0 0 0 0
06-08-2019 35.6 (18:20) 18.8 (00:00) 27.2 9.17 (17:10) 5.83 (20:00) 0 0 0 0 0
05-08-2019 36.6 (17:10) 22.3 (00:00) 29.4 8.61 (18:10) 5 (18:10) 0 0 0 0 0
04-08-2019 35.8 (18:30) 20.8 (00:00) 28.3 11.11 (13:10) 5 (16:50) 0 0 0 0 0
03-08-2019 36.5 (17:10) 20.9 (00:00) 28.7 10.56 (14:40) 5.56 (15:00) 0 0 0 0 0
02-08-2019 36.7 (17:00) 20.8 (00:00) 28.8 6.67 (18:00) 3.33 (18:00) 0 0 0 0 0
01-08-2019 34.3 (17:40) 19.9 (00:00) 27.1 13.33 (00:30) 7.22 (00:20) 0 0 0 0 0
31-07-2019 35 (16:50) 19.4 (00:00) 27.2 14.44 (23:00) 8.06 (23:00) 0 0 0 0 0
30-07-2019 31.3 (16:40) 16.1 (00:00) 23.7 9.72 (16:50) 3.61 (19:30) 0 0 0 0 0
29-07-2019 33.1 (17:20) 20 (00:00) 26.5 15 (16:10) 6.39 (19:40) 0 0 0 0 0
28-07-2019 30.7 (19:00) 15.5 (00:00) 23.1 6.39 (15:40) 3.06 (20:00) 0 0 0 0 0
27-07-2019 26.1 (16:30) 16 (00:00) 21.1 13.33 (18:00) 8.61 (18:30) 0 0 0 0 0
26-07-2019 30.4 (16:10) 22.3 (00:00) 26.3 10.83 (14:30) 6.39 (19:40) 0 0 0 0 0
25-07-2019 36.3 (17:40) 22.5 (00:00) 29.4 13.61 (15:20) 6.94 (20:20) 0 0 0 0 0
24-07-2019 37.6 (19:00) 21.9 (00:00) 29.7 11.11 (17:10) 4.17 (01:30) 0 0 0 0 0
23-07-2019 38.8 (17:30) 21.7 (00:00) 30.3 15.83 (20:00) 7.5 (00:20) 1.4 0 0 0 1.4
22-07-2019 38.2 (17:20) 22.2 (00:00) 30.2 14.72 (00:50) 7.5 (00:50) 0 0 0 0 0
21-07-2019 38.5 (16:10) 23.7 (00:00) 31.1 13.06 (23:50) 6.94 (23:50) 0 0 0 0 0
20-07-2019 37.4 (16:30) 22.5 (06:50) 30 6.67 (23:59) 3.89 (19:30) 0 0 0 0 0
19-07-2019 36.6 (17:30) 21.8 (00:00) 29.2 8.33 (22:40) 4.17 (22:40) 0 0 0 0 0

Gráficas

Temp. máximas Temp. mínimas Temp. medias Precipitaciones Rachas de viento máximas Velocidades máximas media en intervalos de 10 minutos

Datos horarios

Fecha y hora oficial Temperatura (ºC) Velocidad del viento (km/h) Dirección del viento Racha (km/h) Dirección de racha Precipitación (mm) Presión (hPa) Tendencia (hPa) Humedad (%)
2019-08-17 23:00:00 28.9 4 Sur 12 Oeste 0 -- -- 20
2019-08-17 22:00:00 31.4 8 Oeste 22 Oeste 0 -- -- 18
2019-08-17 21:00:00 33.6 13 Oeste 27 Oeste 0 -- -- 17
2019-08-17 20:00:00 35.5 17 Oeste 28 Oeste 0 -- -- 19
2019-08-17 19:00:00 36.5 14 Oeste 29 Sudoeste 0 -- -- 19
2019-08-17 18:00:00 36.9 16 Sudoeste 32 Sudoeste 0 -- -- 18
2019-08-17 17:00:00 36.9 17 Sudoeste 28 Sudoeste 0 -- -- 17
2019-08-17 16:00:00 36.1 13 Oeste 29 Oeste 0 -- -- 19
2019-08-17 15:00:00 35.7 14 Sur 46 Sudoeste 0 -- -- 19
2019-08-17 14:00:00 34.9 18 Sudoeste 33 Sudoeste 0 -- -- 21
2019-08-17 13:00:00 33.8 19 Oeste 30 Oeste 0 -- -- 22
2019-08-17 12:00:00 33.5 13 Sur 26 Sudoeste 0 -- -- 24
2019-08-17 11:00:00 31.6 10 Sur 19 Sur 0 -- -- 25
2019-08-17 10:00:00 29.5 5 Sur 12 Sur 0 -- -- 28
2019-08-17 09:00:00 24.5 6 Sur 10 Sudeste 0 -- -- 33
2019-08-17 08:00:00 22.1 5 Sur 12 Sur 0 -- -- 37
2019-08-17 07:00:00 22.1 6 Sur 10 Sudeste 0 -- -- 36
2019-08-17 06:00:00 23.5 0 Calma 5 Oeste 0 -- -- 34
2019-08-17 05:00:00 23.7 3 Sur 9 Sudeste 0 -- -- 35
2019-08-17 04:00:00 23.8 6 Sur 12 Sudeste 0 -- -- 37
2019-08-17 03:00:00 24.8 5 Sur 9 Sur 0 -- -- 35
2019-08-17 02:00:00 25.6 4 Sur 7 Sur 0 -- -- 29
2019-08-17 01:00:00 26.4 5 Sudeste 7 Sur 0 -- -- 27
2019-08-17 00:00:00 28.2 5 Sudoeste 9 Sudoeste 0 -- -- 25
2019-08-16 23:00:00 29.7 6 Sudoeste 12 Oeste 0 -- -- 28
2019-08-16 22:00:00 31.1 5 Oeste 22 Oeste 0 -- -- 28
2019-08-16 21:00:00 33.5 11 Oeste 21 Sudoeste 0 -- -- 25
2019-08-16 20:00:00 35.5 13 Oeste 28 Sudoeste 0 -- -- 19
2019-08-16 19:00:00 36 17 Oeste 31 Oeste 0 -- -- 19
2019-08-16 18:00:00 35.9 17 Oeste 38 Sudoeste 0 -- -- 19
2019-08-16 17:00:00 36.8 6 Sur 27 Sudoeste 0 -- -- 19
2019-08-16 16:00:00 35.6 9 Este 28 Sudoeste 0 -- -- 22
2019-08-16 15:00:00 34.7 11 Oeste 23 Oeste 0 -- -- 23
2019-08-16 14:00:00 34.1 7 Sudoeste 22 Oeste 0 -- -- 25
2019-08-16 13:00:00 31.8 4 Norte 12 Noroeste 0 -- -- 32
2019-08-16 12:00:00 30.1 4 Sudeste 8 Nordeste 0 -- -- 37
2019-08-16 11:00:00 28.5 3 Sudeste 12 Nordeste 0 -- -- 40
2019-08-16 10:00:00 25.8 5 Este 10 Sur 0 -- -- 49
2019-08-16 09:00:00 22.8 4 Sur 10 Sudeste 0 -- -- 57
2019-08-16 08:00:00 20 0 Calma 3 Nordeste 0 -- -- 58
2019-08-16 07:00:00 20.5 0 Calma 4 Sur 0 -- -- 53
2019-08-16 06:00:00 20.7 0 Calma 10 Sur 0 -- -- 55
2019-08-16 05:00:00 22.1 4 Sur 10 Sudeste 0 -- -- 45
2019-08-16 04:00:00 22.6 4 Sur 9 Oeste 0 -- -- 36
2019-08-16 03:00:00 24.3 3 Sudoeste 8 Oeste 0 -- -- 32
2019-08-16 02:00:00 25.7 4 Oeste 15 Oeste 0 -- -- 30
2019-08-16 01:00:00 27.2 8 Oeste 18 Oeste 0 -- -- 28
2019-08-16 00:00:00 29.2 6 Sudoeste 10 Sur 0 -- -- 26
2019-08-15 23:00:00 29 6 Sudeste 9 Sudeste 0 -- -- 26
2019-08-15 22:00:00 30.1 0 Calma 10 Noroeste 0 -- -- 24
2019-08-15 21:00:00 32.8 7 Noroeste 16 Oeste 0 -- -- 22
2019-08-15 20:00:00 34.8 7 Oeste 17 Oeste 0 -- -- 20
2019-08-15 19:00:00 35.4 6 Oeste 22 Noroeste 0 -- -- 19
2019-08-15 18:00:00 35.8 5 Noroeste 23 Noroeste 0 -- -- 19
2019-08-15 17:00:00 34.5 14 Oeste 25 Noroeste 0 -- -- 19
2019-08-15 16:00:00 34.6 8 Norte 21 Noroeste 0 -- -- 19
2019-08-15 15:00:00 33.6 7 Oeste 22 Noroeste 0 -- -- 20
2019-08-15 14:00:00 32.5 10 Noroeste 24 Oeste 0 -- -- 20
2019-08-15 13:00:00 32.2 8 Noroeste 18 Noroeste 0 -- -- 20
2019-08-15 12:00:00 30.2 6 Noroeste 11 Norte 0 -- -- 22
2019-08-15 11:00:00 28.5 4 Noroeste 12 Noroeste 0 -- -- 25
2019-08-15 10:00:00 25.9 5 Noroeste 12 Noroeste 0 -- -- 32
2019-08-15 09:00:00 23.2 2 Sudeste 7 Sur 0 -- -- 41
2019-08-15 08:00:00 20.1 6 Sudeste 8 Sudeste 0 -- -- 44
2019-08-15 07:00:00 20.2 4 Sudoeste 9 Sudoeste 0 -- -- 42
2019-08-15 06:00:00 20 4 Sur 11 Sur 0 -- -- 34
2019-08-15 05:00:00 22.3 3 Sur 6 Sudoeste 0 -- -- 30
2019-08-15 04:00:00 21.9 5 Sur 11 Sur 0 -- -- 28
2019-08-15 03:00:00 22 4 Sur 14 Sur 0 -- -- 27
2019-08-15 02:00:00 22.6 7 Sur 11 Sudeste 0 -- -- 25
2019-08-15 01:00:00 23.1 6 Sur 10 Sudeste 0 -- -- 24
2019-08-15 00:00:00 25 5 Sudoeste 8 Sudoeste 0 -- -- 23
2019-08-14 23:00:00 25.8 0 Calma 3 Este 0 -- -- 23
2019-08-14 22:00:00 27.8 3 Nordeste 9 Norte 0 -- -- 20
2019-08-14 21:00:00 30.9 6 Norte 18 Norte 0 -- -- 18
2019-08-14 20:00:00 32.4 8 Norte 24 Noroeste 0 -- -- 18
2019-08-14 19:00:00 32.7 10 Oeste 23 Noroeste 0 -- -- 17
2019-08-14 18:00:00 33.2 10 Oeste 23 Oeste 0 -- -- 16
2019-08-14 17:00:00 32.6 9 Norte 23 Noroeste 0 -- -- 17
2019-08-14 16:00:00 32 8 Oeste 23 Oeste 0 -- -- 18
2019-08-14 15:00:00 31.3 9 Noroeste 22 Oeste 0 -- -- 19
2019-08-14 14:00:00 30.3 9 Noroeste 40 Noroeste 0 -- -- 21
2019-08-14 13:00:00 29.2 9 Norte 16 Norte 0 -- -- 27
2019-08-14 12:00:00 27.9 5 Norte 14 Norte 0 -- -- 27
2019-08-14 11:00:00 27.2 0 Calma 12 Sudeste 0 -- -- 33
2019-08-14 10:00:00 24.4 4 Sudeste 11 Sudeste 0 -- -- 44
2019-08-14 09:00:00 19.4 5 Sur 12 Sur 0 -- -- 46
2019-08-14 08:00:00 16.5 4 Sur 9 Sudeste 0 -- -- 43
2019-08-14 07:00:00 15.2 4 Sur 13 Sudeste 0 -- -- 34
2019-08-14 06:00:00 15.8 0 Calma 3 Sudeste 0 -- -- 34
2019-08-14 05:00:00 17.1 0 Calma 3 Sur 0 -- -- 33
2019-08-14 04:00:00 17.7 0 Calma 8 Sudeste 0 -- -- 31
2019-08-14 03:00:00 19.3 5 Sudeste 9 Este 0 -- -- 30
2019-08-14 02:00:00 20.3 4 Sur 8 Sudeste 0 -- -- 29
2019-08-14 01:00:00 22 3 Sur 9 Sudoeste 0 -- -- 27
2019-08-14 00:00:00 22.5 0 Calma 3 Sudeste 0 -- -- 30
2019-08-13 23:00:00 23.4 0 Calma 6 Nordeste 0 -- -- 28
2019-08-13 22:00:00 25.9 3 Nordeste 12 Norte 0 -- -- 25
2019-08-13 21:00:00 27.6 8 Noroeste 20 Noroeste 0 -- -- 20
2019-08-13 20:00:00 28.9 13 Noroeste 23 Oeste 0 -- -- 20
2019-08-13 19:00:00 29.5 11 Noroeste 27 Norte 0 -- -- 20
2019-08-13 18:00:00 29.9 8 Noroeste 22 Norte 0 -- -- 23
2019-08-13 17:00:00 29 9 Oeste 22 Oeste 0 -- -- 23
2019-08-13 16:00:00 28.3 12 Nordeste 23 Nordeste 0 -- -- 26
2019-08-13 15:00:00 27.6 11 Noroeste 24 Noroeste 0 -- -- 27
2019-08-13 14:00:00 27.1 8 Noroeste 20 Noroeste 0 -- -- 32
2019-08-13 13:00:00 25.1 7 Noroeste 17 Nordeste 0 -- -- 42
2019-08-13 12:00:00 23.4 6 Norte 15 Norte 0 -- -- 49
2019-08-13 11:00:00 21.8 8 Norte 17 Norte 0 -- -- 47
2019-08-13 10:00:00 20 6 Norte 13 Norte 0 -- -- 45
2019-08-13 09:00:00 17.2 2 Norte 5 Norte 0 -- -- 48
2019-08-13 08:00:00 15 0 Calma 9 Norte 0 -- -- 53
2019-08-13 07:00:00 14.5 4 Noroeste 8 Norte 0 -- -- 52
2019-08-13 06:00:00 16.2 5 Norte 8 Norte 0 -- -- 45
2019-08-13 05:00:00 17.8 5 Norte 12 Nordeste 0 -- -- 41
2019-08-13 04:00:00 18.2 5 Nordeste 11 Norte 0 -- -- 40
2019-08-13 03:00:00 18.9 8 Norte 18 Norte 0 -- -- 37
2019-08-13 02:00:00 19.8 10 Norte 17 Norte 0 -- -- 31
2019-08-13 01:00:00 20.1 6 Norte 15 Nordeste 0 -- -- 26
2019-08-13 00:00:00 21.9 5 Nordeste 10 Nordeste 0 -- -- 24
2019-08-12 23:00:00 21.5 0 Calma 7 Oeste 0 -- -- 20
2019-08-12 22:00:00 23.2 4 Noroeste 14 Noroeste 0 -- -- 20
2019-08-12 21:00:00 25.1 9 Noroeste 18 Noroeste 0 -- -- 19
2019-08-12 20:00:00 26.3 10 Noroeste 23 Noroeste 0 -- -- 18
2019-08-12 19:00:00 27 10 Noroeste 26 Norte 0 -- -- 15
2019-08-12 18:00:00 27.1 10 Noroeste 28 Noroeste 0 -- -- 16
2019-08-12 17:00:00 27.5 11 Norte 34 Sur 0 -- -- 18
2019-08-12 16:00:00 25.9 9 Norte 25 Noroeste 0 -- -- 21
2019-08-12 15:00:00 25.2 12 Norte 28 Norte 0 -- -- 22
2019-08-12 14:00:00 24.2 15 Norte 31 Noroeste 0 -- -- 27
2019-08-12 13:00:00 22.9 13 Norte 24 Norte 0 -- -- 31
2019-08-12 12:00:00 21.3 15 Norte 26 Norte 0 -- -- 38
2019-08-12 11:00:00 20 13 Norte 24 Norte 0 -- -- 44
2019-08-12 10:00:00 18 12 Noroeste 23 Noroeste 0 -- -- 48
2019-08-12 09:00:00 16.3 9 Noroeste 18 Noroeste 0 -- -- 54
2019-08-12 08:00:00 13.9 8 Oeste 14 Oeste 0 -- -- 57
2019-08-12 07:00:00 14.6 4 Oeste 12 Oeste 0 -- -- 53
2019-08-12 06:00:00 15.2 5 Oeste 10 Oeste 0 -- -- 50
2019-08-12 05:00:00 16 4 Noroeste 23 Oeste 0 -- -- 46
2019-08-12 04:00:00 17.1 10 Noroeste 22 Noroeste 0 -- -- 41
2019-08-12 03:00:00 18.8 14 Noroeste 22 Noroeste 0 -- -- 33
2019-08-12 02:00:00 19.8 12 Noroeste 21 Noroeste 0 -- -- 31
2019-08-12 01:00:00 20.6 11 Noroeste 18 Noroeste 0 -- -- 30
2019-08-12 00:00:00 21.1 10 Oeste 22 Oeste 0 -- -- 26
2019-08-11 23:00:00 22.5 15 Oeste 30 Oeste 0 -- -- 22
2019-08-11 22:00:00 23.1 17 Oeste 29 Noroeste 0 -- -- 24
2019-08-11 21:00:00 24.4 18 Oeste 29 Oeste 0 -- -- 29
2019-08-11 20:00:00 25.9 15 Oeste 37 Oeste 0 -- -- 27
2019-08-11 19:00:00 28.7 20 Oeste 33 Oeste 0 -- -- 24
2019-08-11 18:00:00 30.2 13 Oeste 33 Oeste 0 -- -- 16
2019-08-11 17:00:00 28.6 15 Oeste 35 Sudoeste 0 -- -- 25
2019-08-11 16:00:00 29.2 21 Sudoeste 41 Sudoeste 0 -- -- 19
2019-08-11 15:00:00 29.6 15 Sudoeste 36 Sudoeste 0 -- -- 20
2019-08-11 14:00:00 28.3 12 Oeste 28 Sudoeste 0 -- -- 25
2019-08-11 13:00:00 26.7 10 Oeste 23 Oeste 0 -- -- 31
2019-08-11 12:00:00 25.2 8 Noroeste 24 Oeste 0 -- -- 37
2019-08-11 11:00:00 24.8 12 Noroeste 23 Noroeste 0 -- -- 36
2019-08-11 10:00:00 24.8 4 Sur 9 Sudoeste 0 -- -- 35
2019-08-11 09:00:00 21.4 4 Sudeste 9 Sur 0 -- -- 44
2019-08-11 08:00:00 19.9 3 Sudoeste 5 Sudoeste 0 -- -- 46
2019-08-11 07:00:00 19 2 Norte 10 Oeste 0 -- -- 44
2019-08-11 06:00:00 19.8 3 Oeste 9 Sudoeste 0 -- -- 38
2019-08-11 05:00:00 20.8 6 Sudoeste 12 Oeste 0 -- -- 35
2019-08-11 04:00:00 20.9 4 Sudoeste 12 Sudoeste 0 -- -- 34
2019-08-11 03:00:00 20.8 3 Sudoeste 13 Sudoeste 0 -- -- 33
2019-08-11 02:00:00 22 9 Sudoeste 16 Sudoeste 0 -- -- 31
2019-08-11 01:00:00 22.8 4 Sudoeste 8 Sudoeste 0 -- -- 31
2019-08-11 00:00:00 24.3 4 Oeste 14 Oeste 0 -- -- 28
2019-08-10 23:00:00 25.3 11 Oeste 19 Oeste 0 -- -- 29
2019-08-10 22:00:00 26.8 5 Noroeste 23 Oeste 0 -- -- 29
2019-08-10 21:00:00 29.1 17 Oeste 26 Oeste 0 -- -- 27
2019-08-10 20:00:00 32.3 13 Oeste 29 Sudoeste 0 -- -- 22
2019-08-10 19:00:00 32.9 14 Sudoeste 31 Oeste 0 -- -- 19
2019-08-10 18:00:00 32.8 11 Oeste 30 Sudoeste 0 -- -- 22
2019-08-10 17:00:00 32.9 15 Sudoeste 31 Sudoeste 0 -- -- 20
2019-08-10 16:00:00 32.5 12 Sudoeste 26 Sudoeste 0 -- -- 23
2019-08-10 15:00:00 30.7 10 Oeste 22 Oeste 0 -- -- 30
2019-08-10 14:00:00 29.6 5 Nordeste 19 Nordeste 0 -- -- 38
2019-08-10 13:00:00 28.2 5 Oeste 14 Noroeste 0 -- -- 39
2019-08-10 12:00:00 26 5 Nordeste 10 Noroeste 0 -- -- 42
2019-08-10 11:00:00 24 5 Oeste 10 Noroeste 0 -- -- 51
2019-08-10 10:00:00 23.1 3 Oeste 8 Oeste 0 -- -- 56
2019-08-10 09:00:00 20.6 4 Sudoeste 8 Sur 0 -- -- 63
2019-08-10 08:00:00 19 3 Sudeste 5 Sur 0 -- -- 72
2019-08-10 07:00:00 18.6 4 Sudoeste 6 Sudoeste 0 -- -- 75
2019-08-10 06:00:00 18.3 2 Sudoeste 4 Noroeste 0 -- -- 81
2019-08-10 05:00:00 18.7 0 Calma 6 Oeste 0 -- -- 79
2019-08-10 04:00:00 19.5 4 Oeste 8 Sudoeste 0 -- -- 75
2019-08-10 03:00:00 20.5 3 Sudoeste 9 Sur 0 -- -- 72
2019-08-10 02:00:00 20.7 4 Sur 10 Sudoeste 0 -- -- 73
2019-08-10 01:00:00 21.1 6 Sur 15 Oeste 0 -- -- 71
2019-08-10 00:00:00 21.4 10 Noroeste 21 Oeste 0 -- -- 71
2019-08-09 23:00:00 22 11 Oeste 26 Oeste 0 -- -- 69
2019-08-09 22:00:00 23.1 17 Oeste 27 Oeste 0 -- -- 68
2019-08-09 21:00:00 25.5 16 Oeste 36 Oeste 0 -- -- 62
2019-08-09 20:00:00 30.2 19 Oeste 42 Sudoeste 0 -- -- 41
2019-08-09 19:00:00 30.8 23 Sudoeste 42 Sudoeste 0 -- -- 38
2019-08-09 18:00:00 31.9 21 Oeste 39 Oeste 0 -- -- 36
2019-08-09 17:00:00 32.2 21 Sudoeste 38 Sudoeste 0 -- -- 33
2019-08-09 16:00:00 31.8 20 Sudoeste 36 Sudoeste 0 -- -- 35
2019-08-09 15:00:00 30.9 18 Sudoeste 37 Sudoeste 0 -- -- 36
2019-08-09 14:00:00 29.9 22 Oeste 38 Sudoeste 0 -- -- 39
2019-08-09 13:00:00 29.4 18 Oeste 33 Oeste 0 -- -- 41
2019-08-09 12:00:00 28.8 21 Sudoeste 35 Oeste 0 -- -- 41
2019-08-09 11:00:00 27.6 10 Oeste 24 Oeste 0 -- -- 43
2019-08-09 10:00:00 26.5 6 Oeste 18 Sur 0 -- -- 48
2019-08-09 09:00:00 23.7 9 Sur 16 Sur 0 -- -- 58
2019-08-09 08:00:00 21.5 4 Sudeste 7 Sudeste 0 -- -- 58
2019-08-09 07:00:00 21.4 2 Sur 5 Sudeste 0 -- -- 58
2019-08-09 06:00:00 20.9 0 Calma 6 Sudeste 0 -- -- 59
2019-08-09 05:00:00 22.2 3 Sur 8 Sur 0 -- -- 55
2019-08-09 04:00:00 23 4 Sudoeste 13 Sudoeste 0 -- -- 56
2019-08-09 03:00:00 23.9 5 Sur 15 Oeste 0 -- -- 45
2019-08-09 02:00:00 24.7 2 Sur 10 Oeste 0 -- -- 41
2019-08-09 01:00:00 24.9 6 Oeste 9 Oeste 0 -- -- 38
2019-08-09 00:00:00 26.8 5 Sudoeste 11 Oeste 0 -- -- 35
2019-08-08 23:00:00 28.1 7 Oeste 15 Oeste 0 -- -- 32
2019-08-08 22:00:00 29.9 8 Oeste 26 Oeste 0 -- -- 30
2019-08-08 21:00:00 31.7 18 Oeste 30 Sudoeste 0 -- -- 27
2019-08-08 20:00:00 33.6 16 Sudoeste 30 Sudoeste 0 -- -- 24
2019-08-08 19:00:00 34.1 17 Sudoeste 30 Sudoeste 0 -- -- 26
2019-08-08 18:00:00 34 15 Sudoeste 33 Sudoeste 0 -- -- 27
2019-08-08 17:00:00 34.1 17 Sudoeste 37 Sudoeste 0 -- -- 27
2019-08-08 16:00:00 33.1 14 Sudoeste 33 Sudoeste 0 -- -- 28
2019-08-08 15:00:00 32.5 12 Sudoeste 27 Sur 0 -- -- 30
2019-08-08 14:00:00 31.3 10 Sudeste 28 Sur 0 -- -- 32
2019-08-08 13:00:00 29.8 6 Sudeste 18 Sur 0 -- -- 36
2019-08-08 12:00:00 27.7 6 Oeste 12 Sudoeste 0 -- -- 41
2019-08-08 11:00:00 26.6 4 Sudoeste 13 Oeste 0 -- -- 42
2019-08-08 10:00:00 24.9 5 Sudoeste 10 Sudoeste 0 -- -- 49
2019-08-08 09:00:00 21.8 5 Sur 10 Sudoeste 0 -- -- 56
2019-08-08 08:00:00 19.3 4 Sur 11 Sur 0 -- -- 60
2019-08-08 07:00:00 19.3 4 Sur 12 Sur 0 -- -- 60
2019-08-08 06:00:00 18.9 4 Sur 8 Sur 0 -- -- 59
2019-08-08 05:00:00 19.6 6 Sur 9 Sudoeste 0 -- -- 58
2019-08-08 04:00:00 20 4 Sur 8 Sudeste 0 -- -- 55
2019-08-08 03:00:00 19.9 2 Sudoeste 10 Sur 0 -- -- 56
2019-08-08 02:00:00 20.7 5 Sur 10 Oeste 0 -- -- 53
2019-08-08 01:00:00 21.2 5 Oeste 11 Oeste 0 -- -- 52
2019-08-08 00:00:00 22.5 4 Sudoeste 11 Oeste 0 -- -- 49
2019-08-07 23:00:00 23.3 5 Oeste 14 Oeste 0 -- -- 47
2019-08-07 22:00:00 24.8 9 Oeste 19 Sudoeste 0 -- -- 44
2019-08-07 21:00:00 25.2 14 Oeste 21 Oeste 0 -- -- 42
2019-08-07 20:00:00 25.6 13 Oeste 23 Oeste 0 -- -- 41
2019-08-07 19:00:00 26 14 Noroeste 23 Oeste 0 -- -- 41
2019-08-07 18:00:00 26.2 15 Oeste 33 Oeste 0 -- -- 40
2019-08-07 17:00:00 26.9 19 Oeste 31 Oeste 0 -- -- 36
2019-08-07 16:00:00 27.4 17 Oeste 38 Oeste 0 -- -- 37
2019-08-07 15:00:00 28.1 18 Noroeste 35 Oeste 0 -- -- 34
2019-08-07 14:00:00 29.4 17 Oeste 30 Noroeste 0 -- -- 31
2019-08-07 13:00:00 28.9 11 Oeste 21 Noroeste 0 -- -- 31
2019-08-07 12:00:00 28 9 Oeste 21 Oeste 0 -- -- 32
2019-08-07 11:00:00 27.5 5 Sudoeste 14 Sur 0 -- -- 30
2019-08-07 10:00:00 25.9 4 Sudoeste 11 Sudoeste 0 -- -- 34
2019-08-07 09:00:00 24.8 2 Norte 12 Sur 0 -- -- 36
2019-08-07 08:00:00 22.8 6 Sur 11 Sur 0 -- -- 40
2019-08-07 07:00:00 22.5 8 Sur 17 Sudeste 0 -- -- 42
2019-08-07 06:00:00 23.8 5 Sur 9 Sur 0 -- -- 39
2019-08-07 05:00:00 23.9 5 Sur 11 Sudoeste 0 -- -- 32
2019-08-07 04:00:00 24.3 5 Sudoeste 12 Oeste 0 -- -- 30
2019-08-07 03:00:00 24.9 5 Oeste 15 Oeste 0 -- -- 31
2019-08-07 02:00:00 25.2 7 Oeste 20 Oeste 0 -- -- 24
2019-08-07 01:00:00 25.4 3 Sur 9 Oeste 0 -- -- 22
2019-08-07 00:00:00 25.8 5 Oeste 17 Oeste 0 -- -- 20
2019-08-06 23:00:00 27.2 7 Oeste 13 Oeste 0 -- -- 18
2019-08-06 22:00:00 28.9 8 Sudoeste 23 Oeste 0 -- -- 17
2019-08-06 21:00:00 31.1 10 Sudoeste 30 Oeste 0 -- -- 15
2019-08-06 20:00:00 33.6 21 Oeste 32 Oeste 0 -- -- 15
2019-08-06 19:00:00 34.5 14 Sudoeste 30 Oeste 0 -- -- 13
2019-08-06 18:00:00 35.1 14 Sudoeste 33 Sur 0 -- -- 14
2019-08-06 17:00:00 35 14 Sudoeste 31 Sudoeste 0 -- -- 15
2019-08-06 16:00:00 34.8 15 Sudoeste 31 Sur 0 -- -- 15
2019-08-06 15:00:00 34.2 13 Sur 29 Sur 0 -- -- 15
2019-08-06 14:00:00 33.5 13 Sudoeste 28 Oeste 0 -- -- 15
2019-08-06 13:00:00 32.6 11 Sudoeste 28 Sudoeste 0 -- -- 15
2019-08-06 12:00:00 31.4 12 Sudoeste 30 Sudoeste 0 -- -- 18
2019-08-06 11:00:00 32 4 Nordeste 12 Noroeste 0 -- -- 21
2019-08-06 10:00:00 29.1 4 Norte 10 Sudeste 0 -- -- 22
2019-08-06 09:00:00 24.6 5 Sudeste 16 Sur 0 -- -- 23
2019-08-06 08:00:00 20.6 7 Sur 13 Sur 0 -- -- 25
2019-08-06 07:00:00 21.5 5 Sur 10 Sur 0 -- -- 24
2019-08-06 06:00:00 20.8 0 Calma 8 Sudeste 0 -- -- 24
2019-08-06 05:00:00 22.8 6 Sur 13 Sur 0 -- -- 22
2019-08-06 04:00:00 23.5 8 Sudeste 11 Sudeste 0 -- -- 23
2019-08-06 03:00:00 24.3 7 Sudoeste 13 Sudoeste 0 -- -- 23
2019-08-06 02:00:00 24.2 3 Sur 10 Sur 0 -- -- 22
2019-08-06 01:00:00 25.7 4 Sudeste 15 Oeste 0 -- -- 21
2019-08-06 00:00:00 27.2 6 Oeste 14 Sudoeste 0 -- -- 20
2019-08-05 23:00:00 28.5 8 Oeste 13 Oeste 0 -- -- 23
2019-08-05 22:00:00 30.8 10 Oeste 21 Sudoeste 0 -- -- 16
2019-08-05 21:00:00 33.5 13 Oeste 28 Sudoeste 0 -- -- 16
2019-08-05 20:00:00 35.6 11 Sudoeste 26 Sudoeste 0 -- -- 16
2019-08-05 19:00:00 35.9 13 Sudoeste 31 Oeste 0 -- -- 14
2019-08-05 18:00:00 36.5 9 Oeste 26 Sudoeste 0 -- -- 14
2019-08-05 17:00:00 36.3 16 Sudoeste 30 Oeste 0 -- -- 13
2019-08-05 16:00:00 36.1 9 Sur 26 Sudoeste 0 -- -- 19
2019-08-05 15:00:00 35.3 6 Sur 21 Sudoeste 0 -- -- 19
2019-08-05 14:00:00 33.6 9 Norte 24 Norte 0 -- -- 23
2019-08-05 13:00:00 32.9 8 Norte 15 Norte 0 -- -- 24
2019-08-05 12:00:00 31.2 4 Norte 12 Norte 0 -- -- 27
2019-08-05 11:00:00 30.1 4 Norte 8 Oeste 0 -- -- 30
2019-08-05 10:00:00 28.6 4 Oeste 9 Oeste 0 -- -- 32
2019-08-05 09:00:00 26.1 0 Calma 7 Sudeste 0 -- -- 35
2019-08-05 08:00:00 23.1 4 Este 11 Sur 0 -- -- 37
2019-08-05 07:00:00 22.6 3 Sur 9 Sudeste 0 -- -- 36
2019-08-05 06:00:00 22.7 6 Sur 10 Sur 0 -- -- 36
2019-08-05 05:00:00 22.8 4 Sur 8 Sur 0 -- -- 35
2019-08-05 04:00:00 23.5 5 Sudeste 12 Sudoeste 0 -- -- 32
2019-08-05 03:00:00 24.7 6 Sudoeste 13 Oeste 0 -- -- 30
2019-08-05 02:00:00 24.1 7 Sudeste 10 Sur 0 -- -- 21
2019-08-05 01:00:00 25.4 0 Calma 10 Oeste 0 -- -- 19
2019-08-05 00:00:00 26.2 4 Oeste 9 Oeste 0 -- -- 19
2019-08-04 23:00:00 28.2 5 Sudoeste 15 Sudoeste 0 -- -- 18
2019-08-04 22:00:00 30.2 8 Sudoeste 18 Oeste 0 -- -- 16
2019-08-04 21:00:00 33 14 Oeste 28 Oeste 0 -- -- 14
2019-08-04 20:00:00 34.7 13 Oeste 24 Oeste 0 -- -- 16
2019-08-04 19:00:00 35.2 14 Sur 27 Sudoeste 0 -- -- 14
2019-08-04 18:00:00 35.3 8 Sur 30 Oeste 0 -- -- 16
2019-08-04 17:00:00 34.9 12 Oeste 31 Oeste 0 -- -- 17
2019-08-04 16:00:00 34.8 13 Oeste 33 Sudoeste 0 -- -- 16
2019-08-04 15:00:00 34.4 13 Sur 29 Sur 0 -- -- 18
2019-08-04 14:00:00 33.6 9 Sudoeste 40 Sur 0 -- -- 17
2019-08-04 13:00:00 32.8 12 Sur 26 Sudoeste 0 -- -- 19
2019-08-04 12:00:00 32.2 7 Sur 17 Sudoeste 0 -- -- 21
2019-08-04 11:00:00 31.4 5 Sudoeste 12 Sudoeste 0 -- -- 21
2019-08-04 10:00:00 29.6 4 Sur 10 Sur 0 -- -- 23
2019-08-04 09:00:00 24.1 5 Sur 10 Sur 0 -- -- 28
2019-08-04 08:00:00 21.1 5 Sudeste 8 Sudeste 0 -- -- 31
2019-08-04 07:00:00 22 2 Sudeste 10 Sudeste 0 -- -- 29
2019-08-04 06:00:00 22.1 7 Sudeste 12 Sudoeste 0 -- -- 29
2019-08-04 05:00:00 23.5 6 Sur 9 Sur 0 -- -- 27
2019-08-04 04:00:00 24.2 4 Sur 9 Sudoeste 0 -- -- 27
2019-08-04 03:00:00 24.6 4 Sur 10 Sudoeste 0 -- -- 28
2019-08-04 02:00:00 24.6 3 Sur 9 Sudoeste 0 -- -- 27
2019-08-04 01:00:00 25.9 5 Sudoeste 9 Sudoeste 0 -- -- 23
2019-08-04 00:00:00 26.3 3 Sudeste 8 Sudoeste 0 -- -- 20
2019-08-03 23:00:00 28.3 4 Sudoeste 14 Oeste 0 -- -- 18
2019-08-03 22:00:00 30.7 7 Oeste 26 Oeste 0 -- -- 14
2019-08-03 21:00:00 33.2 15 Oeste 32 Sudoeste 0 -- -- 14
2019-08-03 20:00:00 35.4 11 Sudoeste 28 Sudoeste 0 -- -- 16
2019-08-03 19:00:00 35.9 15 Oeste 29 Oeste 0 -- -- 15
2019-08-03 18:00:00 35.9 16 Sudoeste 32 Sudoeste 0 -- -- 15
2019-08-03 17:00:00 35.9 12 Sudoeste 30 Oeste 0 -- -- 16
2019-08-03 16:00:00 35.2 19 Oeste 36 Sur 0 -- -- 17
2019-08-03 15:00:00 34.5 20 Sudoeste 38 Oeste 0 -- -- 18
2019-08-03 14:00:00 33.8 13 Oeste 28 Sudoeste 0 -- -- 21
2019-08-03 13:00:00 33.1 8 Este 22 Noroeste 0 -- -- 20
2019-08-03 12:00:00 32.6 4 Norte 16 Noroeste 0 -- -- 18
2019-08-03 11:00:00 30.9 4 Sudoeste 10 Oeste 0 -- -- 20
2019-08-03 10:00:00 28.1 6 Sudeste 12 Sur 0 -- -- 30
2019-08-03 09:00:00 24.1 5 Sur 11 Sur 0 -- -- 46
2019-08-03 08:00:00 21.1 9 Sur 15 Sudeste 0 -- -- 59
2019-08-03 07:00:00 21 7 Sur 13 Sudeste 0 -- -- 60
2019-08-03 06:00:00 21.7 4 Sur 8 Sur 0 -- -- 46
2019-08-03 05:00:00 22.7 0 Calma 6 Sudeste 0 -- -- 23
2019-08-03 04:00:00 24.2 4 Sur 7 Sur 0 -- -- 21
2019-08-03 03:00:00 24.4 3 Sur 8 Sudeste 0 -- -- 20
2019-08-03 02:00:00 24.8 4 Sur 9 Sur 0 -- -- 21
2019-08-03 01:00:00 26.1 5 Sudeste 9 Sudeste 0 -- -- 20
2019-08-03 00:00:00 27.1 4 Sudoeste 13 Oeste 0 -- -- 21
2019-08-02 23:00:00 29.2 10 Oeste 15 Oeste 0 -- -- 20
2019-08-02 22:00:00 30.3 6 Noroeste 17 Noroeste 0 -- -- 20
2019-08-02 21:00:00 33.8 10 Norte 24 Noroeste 0 -- -- 18
2019-08-02 20:00:00 35.2 10 Noroeste 19 Noroeste 0 -- -- 18
2019-08-02 19:00:00 35.6 10 Noroeste 20 Noroeste 0 -- -- 17
2019-08-02 18:00:00 35.7 12 Oeste 24 Oeste 0 -- -- 15
2019-08-02 17:00:00 36.7 3 Sudeste 22 Sudoeste 0 -- -- 16
2019-08-02 16:00:00 34.9 6 Oeste 21 Sudoeste 0 -- -- 17
2019-08-02 15:00:00 34.1 8 Sur 19 Sur 0 -- -- 18
2019-08-02 14:00:00 34.5 5 Sudeste 18 Sudeste 0 -- -- 20
2019-08-02 13:00:00 32 6 Sur 18 Sur 0 -- -- 22
2019-08-02 12:00:00 31.2 4 Sur 10 Sur 0 -- -- 24
2019-08-02 11:00:00 29.8 2 Sur 13 Oeste 0 -- -- 26
2019-08-02 10:00:00 27.8 2 Sudoeste 8 Oeste 0 -- -- 29
2019-08-02 09:00:00 23.3 3 Sudeste 8 Sudeste 0 -- -- 34
2019-08-02 08:00:00 21.5 3 Sur 7 Sur 0 -- -- 36
2019-08-02 07:00:00 20.9 3 Sur 7 Sur 0 -- -- 37
2019-08-02 06:00:00 21.7 4 Sur 9 Sudeste 0 -- -- 35
2019-08-02 05:00:00 21.6 6 Sur 10 Sudeste 0 -- -- 35
2019-08-02 04:00:00 23.2 4 Sur 9 Sur 0 -- -- 33
2019-08-02 03:00:00 23.4 4 Sudeste 8 Sudeste 0 -- -- 30
2019-08-02 02:00:00 24.2 4 Sur 9 Oeste 0 -- -- 25
2019-08-02 01:00:00 24.5 3 Sudoeste 7 Sudoeste 0 -- -- 23
2019-08-02 00:00:00 26 4 Oeste 12 Sudoeste 0 -- -- 22
2019-08-01 23:00:00 27.3 6 Sudoeste 15 Sudoeste 0 -- -- 22
2019-08-01 22:00:00 29.2 8 Sudoeste 18 Sudoeste 0 -- -- 20
2019-08-01 21:00:00 31.5 14 Sudoeste 24 Sudoeste 0 -- -- 18
2019-08-01 20:00:00 32.9 14 Oeste 32 Oeste 0 -- -- 17
2019-08-01 19:00:00 33.6 17 Oeste 30 Oeste 0 -- -- 19
2019-08-01 18:00:00 33.9 13 Oeste 28 Oeste 0 -- -- 19
2019-08-01 17:00:00 33.7 13 Oeste 28 Sudoeste 0 -- -- 19
2019-08-01 16:00:00 33.6 12 Sudoeste 31 Sudoeste 0 -- -- 20
2019-08-01 15:00:00 32.7 12 Sudoeste 31 Oeste 0 -- -- 21
2019-08-01 14:00:00 32.7 5 Sudeste 20 Sudoeste 0 -- -- 23
2019-08-01 13:00:00 30.9 6 Oeste 23 Oeste 0 -- -- 26
2019-08-01 12:00:00 29 7 Noroeste 19 Noroeste 0 -- -- 32
2019-08-01 11:00:00 27.2 5 Oeste 11 Oeste 0 -- -- 46
2019-08-01 10:00:00 24.7 3 Sur 15 Sudeste 0 -- -- 55
2019-08-01 09:00:00 22.3 6 Sudeste 15 Sur 0 -- -- 61
2019-08-01 08:00:00 20.3 8 Sudeste 17 Sur 0 -- -- 67
2019-08-01 07:00:00 20 6 Sur 15 Sudeste 0 -- -- 67
2019-08-01 06:00:00 20.8 4 Sudeste 17 Sur 0 -- -- 63
2019-08-01 05:00:00 20.9 9 Sudeste 22 Sudeste 0 -- -- 65
2019-08-01 04:00:00 21.5 8 Sudeste 22 Sudeste 0 -- -- 63
2019-08-01 03:00:00 21.8 8 Sudeste 23 Sudeste 0 -- -- 64
2019-08-01 02:00:00 22.1 5 Noroeste 46 Sudeste 0 -- -- 65
2019-08-01 01:00:00 23.1 23 Sudeste 48 Este 0 -- -- 63
2019-08-01 00:00:00 24.3 23 Sudeste 51 Este 0 -- -- 60
2019-07-31 23:00:00 25.8 29 Sudeste 52 Este 0 -- -- 56
2019-07-31 22:00:00 28.4 19 Este 40 Sudeste 0 -- -- 42
2019-07-31 21:00:00 30 15 Este 37 Este 0 -- -- 36
2019-07-31 20:00:00 31.2 16 Este 40 Este 0 -- -- 35
2019-07-31 19:00:00 33.4 12 Sudeste 31 Sudeste 0 -- -- 25
2019-07-31 18:00:00 34.2 12 Sudeste 24 Sudeste 0 -- -- 26
2019-07-31 17:00:00 34.5 11 Sudeste 26 Este 0 -- -- 26
2019-07-31 16:00:00 34 10 Sudeste 27 Este 0 -- -- 27
2019-07-31 15:00:00 32.8 8 Sudeste 26 Sudeste 0 -- -- 28
2019-07-31 14:00:00 31.4 9 Sudeste 25 Este 0 -- -- 31
2019-07-31 13:00:00 29.3 14 Este 27 Sudeste 0 -- -- 38
2019-07-31 12:00:00 27.1 15 Este 31 Sudeste 0 -- -- 45
2019-07-31 11:00:00 25.5 15 Este 32 Este 0 -- -- 53
2019-07-31 10:00:00 24 12 Este 29 Sudeste 0 -- -- 61
2019-07-31 09:00:00 21.5 11 Este 23 Este 0 -- -- 72
2019-07-31 08:00:00 19.7 7 Nordeste 19 Este 0 -- -- 75
2019-07-31 07:00:00 19.9 8 Este 23 Este 0 -- -- 77
2019-07-31 06:00:00 20.6 12 Este 25 Nordeste 0 -- -- 71
2019-07-31 05:00:00 20.3 3 Norte 23 Este 0 -- -- 65
2019-07-31 04:00:00 21.6 4 Sudeste 20 Este 0 -- -- 65
2019-07-31 03:00:00 22.3 8 Este 17 Este 0 -- -- 62
2019-07-31 02:00:00 21.5 3 Oeste 13 Noroeste 0 -- -- 24
2019-07-31 01:00:00 22.7 3 Sur 5 Sur 0 -- -- 23
2019-07-31 00:00:00 23.1 0 Calma 2 Norte 0 -- -- 22
2019-07-30 23:00:00 25.1 3 Norte 12 Norte 0 -- -- 20
2019-07-30 22:00:00 26.6 7 Norte 17 Norte 0 -- -- 19
2019-07-30 21:00:00 29.4 11 Norte 20 Norte 0 -- -- 17
2019-07-30 20:00:00 30.4 10 Norte 23 Nordeste 0 -- -- 18
2019-07-30 19:00:00 30.9 11 Norte 22 Norte 0 -- -- 18
2019-07-30 18:00:00 31.1 11 Norte 26 Norte 0 -- -- 20
2019-07-30 17:00:00 30.8 9 Norte 35 Noroeste 0 -- -- 21
2019-07-30 16:00:00 29.7 6 Sudoeste 18 Sudoeste 0 -- -- 22
2019-07-30 15:00:00 28.4 8 Noroeste 18 Noroeste 0 -- -- 25
2019-07-30 14:00:00 28 7 Norte 22 Norte 0 -- -- 26
2019-07-30 13:00:00 25.6 9 Nordeste 18 Norte 0 -- -- 30
2019-07-30 12:00:00 23.9 9 Norte 20 Norte 0 -- -- 33
2019-07-30 11:00:00 22.6 8 Norte 19 Noroeste 0 -- -- 36
2019-07-30 10:00:00 20.1 10 Noroeste 18 Noroeste 0 -- -- 39
2019-07-30 09:00:00 18.2 7 Noroeste 14 Noroeste 0 -- -- 43
2019-07-30 08:00:00 16.6 5 Oeste 10 Sudoeste 0 -- -- 47
2019-07-30 07:00:00 16.1 3 Noroeste 9 Noroeste 0 -- -- 47
2019-07-30 06:00:00 17.2 5 Noroeste 19 Noroeste 0 -- -- 44
2019-07-30 05:00:00 17.9 13 Noroeste 18 Noroeste 0 -- -- 43
2019-07-30 04:00:00 18.8 6 Norte 16 Noroeste 0 -- -- 39
2019-07-30 03:00:00 19.9 10 Noroeste 15 Noroeste 0 -- -- 35
2019-07-30 02:00:00 20.9 5 Noroeste 10 Noroeste 0 -- -- 32
2019-07-30 01:00:00 22.6 6 Noroeste 19 Noroeste 0 -- -- 30
2019-07-30 00:00:00 24.5 13 Oeste 21 Oeste 0 -- -- 29
2019-07-29 23:00:00 25.8 11 Oeste 23 Oeste 0 -- -- 29
2019-07-29 22:00:00 27.3 15 Oeste 30 Oeste 0 -- -- 26
2019-07-29 21:00:00 29.1 19 Oeste 32 Oeste 0 -- -- 23
2019-07-29 20:00:00 30.7 19 Oeste 39 Oeste 0 -- -- 25
2019-07-29 19:00:00 32 17 Oeste 49 Sudoeste 0 -- -- 21
2019-07-29 18:00:00 32.5 14 Sudoeste 33 Sudoeste 0 -- -- 15
2019-07-29 17:00:00 32.8 16 Sudoeste 54 Sudoeste 0 -- -- 15
2019-07-29 16:00:00 31.9 17 Oeste 34 Oeste 0 -- -- 16
2019-07-29 15:00:00 31.5 16 Oeste 32 Oeste 0 -- -- 19
2019-07-29 14:00:00 30.5 14 Sudoeste 33 Sudoeste 0 -- -- 26
2019-07-29 13:00:00 29.4 12 Sudoeste 31 Oeste 0 -- -- 27
2019-07-29 12:00:00 28.8 13 Sur 28 Sudoeste 0 -- -- 31
2019-07-29 11:00:00 27.7 11 Oeste 21 Oeste 0 -- -- 35
2019-07-29 10:00:00 26.3 10 Oeste 16 Sudoeste 0 -- -- 38
2019-07-29 09:00:00 23.2 5 Sur 11 Sur 0 -- -- 42
2019-07-29 08:00:00 21.3 4 Sur 7 Sur 0 -- -- 45
2019-07-29 07:00:00 20.1 4 Sur 10 Sur 0 -- -- 47
2019-07-29 06:00:00 21.7 4 Sudoeste 9 Sur 0 -- -- 44
2019-07-29 05:00:00 20.8 3 Sur 9 Sudeste 0 -- -- 44
2019-07-29 04:00:00 21.7 5 Sudeste 8 Sudeste 0 -- -- 43
2019-07-29 03:00:00 22.5 3 Sur 7 Sur 0 -- -- 41
2019-07-29 02:00:00 23.3 3 Sudeste 5 Sur 0 -- -- 37
2019-07-29 01:00:00 23.8 4 Sur 8 Sur 0 -- -- 35
2019-07-29 00:00:00 24.9 5 Sudoeste 8 Oeste 0 -- -- 32
2019-07-28 23:00:00 26.2 2 Este 5 Noroeste 0 -- -- 31
2019-07-28 22:00:00 27.1 3 Noroeste 10 Oeste 0 -- -- 30
2019-07-28 21:00:00 29.4 5 Oeste 18 Oeste 0 -- -- 29
2019-07-28 20:00:00 30 11 Oeste 20 Sudoeste 0 -- -- 28
2019-07-28 19:00:00 30.7 9 Sudoeste 20 Sudoeste 0 -- -- 27
2019-07-28 18:00:00 30.2 5 Sudeste 19 Sur 0 -- -- 28
2019-07-28 17:00:00 29.2 10 Sudoeste 22 Sur 0 -- -- 30
2019-07-28 16:00:00 29.1 8 Oeste 23 Oeste 0 -- -- 30
2019-07-28 15:00:00 27.3 4 Sudoeste 23 Oeste 0 -- -- 32
2019-07-28 14:00:00 26.2 5 Este 17 Sur 0 -- -- 35
2019-07-28 13:00:00 24.6 4 Sur 16 Norte 0 -- -- 38
2019-07-28 12:00:00 23.7 5 Este 14 Nordeste 0 -- -- 40
2019-07-28 11:00:00 21.9 6 Nordeste 15 Nordeste 0 -- -- 43
2019-07-28 10:00:00 21.2 5 Nordeste 12 Sudeste 0 -- -- 46
2019-07-28 09:00:00 17.4 7 Nordeste 16 Nordeste 0 -- -- 57
2019-07-28 08:00:00 16.9 5 Nordeste 12 Nordeste 0 -- -- 60
2019-07-28 07:00:00 15.8 3 Nordeste 9 Norte 0 -- -- 65
2019-07-28 06:00:00 16.5 6 Norte 9 Norte 0 -- -- 63
2019-07-28 05:00:00 17.2 5 Norte 8 Norte 0 -- -- 60
2019-07-28 04:00:00 18.5 0 Calma 11 Norte 0 -- -- 57
2019-07-28 03:00:00 19.7 6 Norte 15 Norte 0 -- -- 54
2019-07-28 02:00:00 20.9 4 Noroeste 11 Oeste 0 -- -- 52
2019-07-28 01:00:00 20.9 6 Oeste 15 Oeste 0 -- -- 52
2019-07-28 00:00:00 21.8 10 Oeste 20 Oeste 0 -- -- 50
2019-07-27 23:00:00 22.6 12 Oeste 23 Oeste 0 -- -- 47
2019-07-26 12:00:00 -- -- -- -- -- -- -- -- --
2019-07-26 11:00:00 -- -- -- -- -- -- -- -- --
2019-07-26 10:00:00 -- -- -- -- -- -- -- -- --
2019-07-26 09:00:00 23.7 6 Sudoeste 12 Sudoeste 0 -- -- 55
2019-07-26 08:00:00 22.5 3 Sudoeste 14 Sudoeste 0 -- -- 59
2019-07-26 07:00:00 23.1 7 Oeste 11 Oeste 0 -- -- 56
2019-07-26 06:00:00 23.7 5 Sudoeste 18 Oeste 0 -- -- 53
2019-07-26 05:00:00 24.1 11 Sudoeste 24 Oeste 0 -- -- 51
2019-07-26 04:00:00 24.6 5 Sudoeste 12 Sudoeste 0 -- -- 42
2019-07-26 03:00:00 25.3 7 Sudoeste 14 Sudoeste 0 -- -- 36
2019-07-26 02:00:00 26.1 3 Sudoeste 6 Sudoeste 0 -- -- 34
2019-07-26 01:00:00 26.9 2 Sur 7 Oeste 0 -- -- 32
2019-07-26 00:00:00 27.5 3 Sudoeste 9 Oeste 0 -- -- 31
2019-07-25 23:00:00 29.2 5 Oeste 18 Oeste 0 -- -- 28
2019-07-25 22:00:00 30.8 12 Oeste 22 Oeste 0 -- -- 26
2019-07-25 21:00:00 32.3 15 Oeste 38 Oeste 0 -- -- 25
2019-07-25 20:00:00 34 22 Oeste 32 Oeste 0 -- -- 23
2019-07-25 19:00:00 35.9 14 Sudoeste 32 Sudoeste 0 -- -- 19
2019-07-25 18:00:00 36.1 14 Sur 34 Oeste 0 -- -- 19
2019-07-25 17:00:00 36.2 9 Sur 33 Oeste 0 -- -- 19
2019-07-25 16:00:00 35.2 17 Sudoeste 49 Sudeste 0 -- -- 21
2019-07-25 15:00:00 34.9 14 Sudoeste 30 Sudeste 0 -- -- 22
2019-07-25 14:00:00 34.8 15 Sudoeste 31 Sudoeste 0 -- -- 22
2019-07-25 13:00:00 33.3 14 Sudoeste 32 Sur 0 -- -- 25
2019-07-25 12:00:00 32.5 10 Sur 20 Sur 0 -- -- 27
2019-07-25 11:00:00 31 5 Sudoeste 10 Sudoeste 0 -- -- 29
2019-07-25 10:00:00 29.4 5 Sudoeste 10 Sur 0 -- -- 32
2019-07-25 09:00:00 25.5 5 Sur 9 Sur 0 -- -- 42
2019-07-25 08:00:00 24 3 Sudeste 5 Sur 0 -- -- 44
2019-07-25 07:00:00 22.7 2 Nordeste 9 Norte 0 -- -- 46
2019-07-25 06:00:00 25 0 Calma 8 Sur 0 -- -- 42
2019-07-25 05:00:00 26.1 5 Sur 18 Sudoeste 0 -- -- 38
2019-07-25 04:00:00 27 6 Sur 15 Sur 0 -- -- 37
2019-07-25 03:00:00 27.5 7 Sur 16 Sur 0 -- -- 35
2019-07-25 02:00:00 28.2 7 Sur 15 Sudeste 0 -- -- 33
2019-07-25 01:00:00 27.7 4 Sur 12 Sur 0 -- -- 34
2019-07-25 00:00:00 28.9 7 Este 12 Sudeste 0 -- -- 33
2019-07-24 23:00:00 29.9 4 Sur 11 Sudoeste 0 -- -- 32
2019-07-24 22:00:00 31.8 9 Sudoeste 15 Oeste 0 -- -- 29
2019-07-24 21:00:00 34.4 7 Sudoeste 25 Sudoeste 0 -- -- 24
2019-07-24 20:00:00 36.4 9 Sur 26 Sur 0 -- -- 20
2019-07-24 19:00:00 37.6 11 Sudeste 32 Sudoeste 0 -- -- 20
2019-07-24 18:00:00 37.1 14 Sur 40 Sur 0 -- -- 19
2019-07-24 17:00:00 36.7 14 Sur 34 Sur 0 -- -- 20
2019-07-24 16:00:00 36.6 5 Sur 30 Sudeste 0 -- -- 21
2019-07-24 15:00:00 35.7 13 Este 27 Este 0 -- -- 22
2019-07-24 14:00:00 35.1 10 Sudeste 28 Sudeste 0 -- -- 24
2019-07-24 13:00:00 32.9 7 Sur 16 Sudeste 0 -- -- 32
2019-07-24 12:00:00 31.2 9 Norte 15 Norte 0 -- -- 33
2019-07-24 11:00:00 28.8 4 Norte 11 Norte 0 -- -- 36
2019-07-24 10:00:00 27.5 3 Norte 8 Noroeste 0 -- -- 38
2019-07-24 09:00:00 25 0 Calma 8 Sudeste 0 -- -- 40
2019-07-24 08:00:00 23 3 Este 8 Noroeste 0 -- -- 46
2019-07-24 07:00:00 22.9 3 Oeste 13 Sur 0 -- -- 47
2019-07-24 06:00:00 23.4 6 Sur 18 Sur 0 -- -- 47
2019-07-24 05:00:00 23.3 8 Sur 21 Sudoeste 0 -- -- 49
2019-07-24 04:00:00 24.2 9 Sur 22 Sudeste 0 -- -- 48
2019-07-24 03:00:00 25.1 9 Sur 22 Este 0 -- -- 43
2019-07-24 02:00:00 25.1 11 Sudeste 30 Sudeste 0 -- -- 44
2019-07-24 01:00:00 25.4 6 Nordeste 18 Este 0 -- -- 45
2019-07-24 00:00:00 23.1 5 Nordeste 48 Norte 0.2 -- -- 59
2019-07-23 23:00:00 24.6 22 Norte 48 Nordeste -- -- -- 53
2019-07-23 22:00:00 27.5 13 Noroeste 31 Noroeste 0 -- -- 42
2019-07-23 21:00:00 29.8 12 Norte 49 Sur 0 -- -- 31
2019-07-23 20:00:00 -- 26 Sur 57 Sur 0 -- -- --
2019-07-23 19:00:00 34.1 15 Sudoeste 38 Sudoeste 0 -- -- 18
2019-07-23 18:00:00 37.9 12 Sudoeste 27 Sur 0 -- -- 17
2019-07-23 17:00:00 38.4 9 Sudeste 37 Sudeste 0 -- -- 17
2019-07-23 16:00:00 37.9 11 Sudeste 27 Sudeste 0 -- -- 17
2019-07-23 15:00:00 36.4 8 Sudeste 27 Sudeste 0 -- -- 18
2019-07-23 14:00:00 35.2 8 Este 22 Sudeste 0 -- -- 19
2019-07-23 13:00:00 33.9 7 Sudeste 21 Sudeste 0 -- -- 20
2019-07-23 12:00:00 30.6 9 Sudeste 24 Sudeste 0 -- -- 26
2019-07-23 11:00:00 29.1 11 Sudeste 28 Sudeste 0 -- -- 29
2019-07-23 10:00:00 26.5 10 Sudeste 24 Sudeste 0 -- -- 34
2019-07-23 09:00:00 23.6 8 Este 21 Este 0 -- -- 40
2019-07-23 08:00:00 22 7 Nordeste 14 Noroeste 0 -- -- 46
2019-07-23 07:00:00 23.1 3 Este 12 Este 0 -- -- 42
2019-07-23 06:00:00 22.9 0 Calma 19 Sudeste 0 -- -- 47
2019-07-23 05:00:00 24.7 11 Sudeste 35 Sudeste 0 -- -- 34
2019-07-23 04:00:00 25.5 18 Sudeste 35 Sudeste 0 -- -- 30
2019-07-23 03:00:00 26.5 21 Sudeste 43 Sudeste 0 -- -- 26
2019-07-23 02:00:00 27.8 17 Sudeste 44 Sudeste 0 -- -- 21
2019-07-23 01:00:00 28.6 19 Sudeste 49 Sudeste 0 -- -- 20
2019-07-23 00:00:00 29.8 25 Sudeste 50 Sudeste 0 -- -- 19
2019-07-22 23:00:00 31.3 26 Sudeste 49 Este 0 -- -- 17
2019-07-22 22:00:00 32.7 23 Este 44 Sudeste 0 -- -- 17
2019-07-22 21:00:00 34.5 21 Este 41 Sudeste 0 -- -- 17
2019-07-22 20:00:00 37 18 Este 42 Nordeste 0 -- -- 19
2019-07-22 19:00:00 38.2 18 Este 39 Este 0 -- -- 18
2019-07-22 18:00:00 37.9 15 Este 33 Sudeste 0 -- -- 19
2019-07-22 17:00:00 37.5 13 Este 31 Este 0 -- -- 19
2019-07-22 16:00:00 36.6 10 Este 34 Este 0 -- -- 22
2019-07-22 15:00:00 35.6 13 Este 28 Sudeste 0 -- -- 25
2019-07-22 14:00:00 34.4 14 Sudeste 30 Sudeste 0 -- -- 27
2019-07-22 13:00:00 33 15 Sudeste 27 Este 0 -- -- 29
2019-07-22 12:00:00 31.4 14 Sudeste 30 Sudeste 0 -- -- 32
2019-07-22 11:00:00 28.6 16 Sudeste 35 Sudeste 0 -- -- 36
2019-07-22 10:00:00 26.4 14 Sudeste 29 Este 0 -- -- 41
2019-07-22 09:00:00 24 15 Sudeste 35 Este 0 -- -- 47
2019-07-22 08:00:00 22.7 13 Este 27 Este 0 -- -- 50
2019-07-22 07:00:00 22.3 4 Sudeste 27 Este 0 -- -- 49
2019-07-22 06:00:00 22.7 10 Sudeste 41 Sudeste 0 -- -- 48
2019-07-22 05:00:00 23.4 18 Sudeste 46 Sudeste 0 -- -- 46
2019-07-22 04:00:00 24.1 15 Este 40 Este 0 -- -- 43
2019-07-22 03:00:00 25.4 18 Sudeste 45 Sudeste 0 -- -- 37
2019-07-22 02:00:00 26.6 15 Sudeste 47 Sudeste 0 -- -- 35
2019-07-22 01:00:00 27.8 27 Este 53 Este 0 -- -- 35
2019-07-22 00:00:00 28.7 25 Este 47 Este 0 -- -- 37
2019-07-21 23:00:00 30.5 21 Este 44 Este 0 -- -- 37
2019-07-21 22:00:00 32.8 18 Este 35 Este 0 -- -- 27
2019-07-21 21:00:00 34.1 14 Este 30 Este 0 -- -- 27
2019-07-21 20:00:00 35.1 16 Este 31 Este 0 -- -- 25
2019-07-21 19:00:00 35.7 10 Este 26 Este 0 -- -- 23
2019-07-21 18:00:00 36.4 12 Este 31 Sudeste 0 -- -- 23
2019-07-21 17:00:00 38 13 Este 28 Este 0 -- -- 22
2019-07-21 16:00:00 38.1 8 Este 17 Nordeste 0 -- -- 21
2019-07-21 15:00:00 36.2 7 Norte 19 Noroeste 0 -- -- 23
2019-07-21 14:00:00 34.9 9 Nordeste 18 Nordeste 0 -- -- 25
2019-07-21 13:00:00 33.7 6 Nordeste 16 Este 0 -- -- 29
2019-07-21 12:00:00 31.8 6 Nordeste 12 Nordeste 0 -- -- 31
2019-07-21 11:00:00 30.3 2 Sudoeste 11 Sudoeste 0 -- -- 30
2019-07-21 10:00:00 27.6 7 Sudeste 12 Sur 0 -- -- 37
2019-07-21 09:00:00 26.1 4 Sudeste 9 Sudeste 0 -- -- 38
2019-07-21 08:00:00 24.2 7 Sudeste 13 Sudeste 0 -- -- 40
2019-07-21 07:00:00 23.7 3 Sudeste 12 Sudeste 0 -- -- 39
2019-07-21 06:00:00 24.2 6 Sudeste 14 Sudeste 0 -- -- 38
2019-07-21 05:00:00 25 4 Sudeste 18 Sudeste 0 -- -- 37
2019-07-21 04:00:00 25.9 10 Sudeste 22 Este 0 -- -- 38
2019-07-21 03:00:00 27.1 12 Sudeste 26 Este 0 -- -- 37
2019-07-21 02:00:00 28.1 12 Sudeste 25 Este 0 -- -- 36
2019-07-21 01:00:00 29.6 11 Este 26 Este 0 -- -- 35
2019-07-21 00:00:00 31.3 10 Nordeste 24 Nordeste 0 -- -- 28
2019-07-20 23:00:00 31.7 10 Oeste 17 Oeste 0 -- -- 28
2019-07-20 22:00:00 33.5 10 Oeste 19 Oeste 0 -- -- 26
2019-07-20 21:00:00 35.4 13 Noroeste 22 Norte 0 -- -- 23
2019-07-20 20:00:00 36 11 Noroeste 23 Noroeste 0 -- -- 23
2019-07-20 19:00:00 36.6 9 Oeste 19 Norte 0 -- -- 22
2019-07-20 18:00:00 36.2 7 Oeste 24 Nordeste 0 -- -- 22
2019-07-20 17:00:00 37.1 9 Nordeste 20 Norte 0 -- -- 22
2019-07-20 16:00:00 37.1 8 Este 18 Sudoeste 0 -- -- 22
2019-07-20 15:00:00 36 6 Sur 19 Norte 0 -- -- 23
2019-07-20 14:00:00 35.2 7 Nordeste 18 Noroeste 0 -- -- 24
2019-07-20 13:00:00 33.1 7 Noroeste 13 Oeste 0 -- -- 26
2019-07-20 12:00:00 31.3 6 Oeste 15 Oeste 0 -- -- 29
2019-07-20 11:00:00 29.9 4 Sudoeste 11 Oeste 0 -- -- 31
2019-07-20 10:00:00 28.2 2 Sur 8 Sur 0 -- -- 34
2019-07-20 09:00:00 25.2 5 Sudeste 11 Sudeste 0 -- -- 40
2019-07-20 08:00:00 23.5 5 Sudeste 13 Sudeste 0 -- -- 43
2019-07-20 07:00:00 22.5 8 Sudeste 18 Sudeste 0 -- -- 45
2019-07-20 06:00:00 23.2 6 Sudeste 13 Sur 0 -- -- 43
2019-07-20 05:00:00 24.1 7 Sudeste 18 Sudeste 0 -- -- 40
2019-07-20 04:00:00 25.4 6 Sudeste 13 Sudeste 0 -- -- 37
2019-07-20 03:00:00 26.3 6 Sudeste 22 Sudeste 0 -- -- 35
2019-07-20 02:00:00 27.6 7 Sudeste 19 Sudeste 0 -- -- 32
2019-07-20 01:00:00 28.5 9 Sudeste 22 Sudeste 0 -- -- 30
2019-07-20 00:00:00 30 10 Sudeste 29 Sudeste 0 -- -- 28
2019-07-19 23:00:00 31.5 11 Sudeste 30 Este 0 -- -- 22
2019-07-19 22:00:00 32.8 5 Nordeste 10 Oeste 0 -- -- 24
2019-07-19 21:00:00 35 7 Oeste 14 Oeste 0 -- -- 21
2019-07-19 20:00:00 35.8 7 Sudoeste 20 Oeste 0 -- -- 19
2019-07-19 19:00:00 36 5 Sudoeste 20 Oeste 0 -- -- 19
2019-07-19 18:00:00 35.9 5 Sudeste 21 Sudoeste 0 -- -- 21
2019-07-19 17:00:00 35.7 6 Sudeste 18 Sur 0 -- -- 21
2019-07-19 16:00:00 36.1 9 Sur 22 Sur 0 -- -- 22
2019-07-19 15:00:00 36 9 Este 22 Sudeste 0 -- -- 22
2019-07-19 14:00:00 34.7 8 Nordeste 18 Este 0 -- -- 25
2019-07-19 13:00:00 33.3 6 Este 14 Este 0 -- -- 27
2019-07-19 12:00:00 31.2 6 Nordeste 12 Sudeste 0 -- -- 31
2019-07-19 11:00:00 28.7 3 Sudoeste 12 Sur 0 -- -- 35
2019-07-19 10:00:00 27.1 5 Sur 9 Sudeste 0 -- -- 37
2019-07-19 09:00:00 24.2 3 Norte 10 Sur 0 -- -- 45
2019-07-19 08:00:00 22.9 4 Sur 10 Sur 0 -- -- 47
2019-07-19 07:00:00 21.8 6 Sudeste 17 Sudeste 0 -- -- 51
2019-07-19 06:00:00 22.7 7 Sudeste 14 Sudoeste 0 -- -- 46
2019-07-19 05:00:00 23.5 7 Sur 12 Sudoeste 0 -- -- 39
2019-07-19 04:00:00 24.9 6 Sudeste 12 Sudeste 0 -- -- 35
2019-07-19 03:00:00 26 3 Norte 8 Oeste 0 -- -- 34
2019-07-19 02:00:00 26.7 5 Sudoeste 17 Oeste 0 -- -- 33
2019-07-19 01:00:00 28.3 13 Oeste 21 Oeste 0 -- -- 31
2019-07-19 00:00:00 29.4 2 Nordeste 6 Sudeste 0 -- -- 26